sensor_id;sensor_type;location;lat;lon;timestamp;P1;durP1;ratioP1;P2;durP2;ratioP2
8001;SDS011;4046;48.774;8.732;2023-02-15T00:00:35;4.90;;;4.60;;
8001;SDS011;4046;48.774;8.732;2023-02-15T00:03:01;5.50;;;5.10;;
8001;SDS011;4046;48.774;8.732;2023-02-15T00:05:29;4.87;;;4.57;;
8001;SDS011;4046;48.774;8.732;2023-02-15T00:07:56;4.90;;;4.50;;
8001;SDS011;4046;48.774;8.732;2023-02-15T00:10:22;4.93;;;4.63;;
8001;SDS011;4046;48.774;8.732;2023-02-15T00:12:49;4.80;;;4.50;;
8001;SDS011;4046;48.774;8.732;2023-02-15T00:15:15;4.60;;;4.30;;
8001;SDS011;4046;48.774;8.732;2023-02-15T00:17:41;5.20;;;4.90;;
8001;SDS011;4046;48.774;8.732;2023-02-15T00:20:07;4.83;;;4.47;;
8001;SDS011;4046;48.774;8.732;2023-02-15T00:22:34;4.97;;;4.67;;
8001;SDS011;4046;48.774;8.732;2023-02-15T00:25:00;5.13;;;4.73;;
8001;SDS011;4046;48.774;8.732;2023-02-15T00:27:26;4.80;;;4.50;;
8001;SDS011;4046;48.774;8.732;2023-02-15T00:29:52;5.17;;;4.87;;
8001;SDS011;4046;48.774;8.732;2023-02-15T00:32:19;5.17;;;4.87;;
8001;SDS011;4046;48.774;8.732;2023-02-15T00:34:45;5.17;;;4.87;;
8001;SDS011;4046;48.774;8.732;2023-02-15T00:37:11;5.10;;;4.80;;
8001;SDS011;4046;48.774;8.732;2023-02-15T00:39:38;4.80;;;4.50;;
8001;SDS011;4046;48.774;8.732;2023-02-15T00:42:04;4.50;;;4.20;;
8001;SDS011;4046;48.774;8.732;2023-02-15T00:44:30;4.63;;;4.33;;
8001;SDS011;4046;48.774;8.732;2023-02-15T00:46:56;4.80;;;4.50;;
8001;SDS011;4046;48.774;8.732;2023-02-15T00:49:22;4.40;;;4.10;;
8001;SDS011;4046;48.774;8.732;2023-02-15T00:51:49;4.90;;;4.60;;
8001;SDS011;4046;48.774;8.732;2023-02-15T00:54:15;4.60;;;4.30;;
8001;SDS011;4046;48.774;8.732;2023-02-15T00:56:41;4.40;;;4.10;;
8001;SDS011;4046;48.774;8.732;2023-02-15T00:59:08;4.60;;;4.30;;
8001;SDS011;4046;48.774;8.732;2023-02-15T01:01:34;4.73;;;4.43;;
8001;SDS011;4046;48.774;8.732;2023-02-15T01:04:01;4.70;;;4.40;;
8001;SDS011;4046;48.774;8.732;2023-02-15T01:06:27;4.50;;;4.20;;
8001;SDS011;4046;48.774;8.732;2023-02-15T01:08:53;4.90;;;4.60;;
8001;SDS011;4046;48.774;8.732;2023-02-15T01:11:20;4.87;;;4.57;;
8001;SDS011;4046;48.774;8.732;2023-02-15T01:13:52;4.93;;;4.60;;
8001;SDS011;4046;48.774;8.732;2023-02-15T01:16:23;4.77;;;4.37;;
8001;SDS011;4046;48.774;8.732;2023-02-15T01:18:51;5.10;;;4.80;;
8001;SDS011;4046;48.774;8.732;2023-02-15T01:21:18;4.70;;;4.40;;
8001;SDS011;4046;48.774;8.732;2023-02-15T01:23:46;4.80;;;4.50;;
8001;SDS011;4046;48.774;8.732;2023-02-15T01:26:13;4.87;;;4.57;;
8001;SDS011;4046;48.774;8.732;2023-02-15T01:28:40;5.10;;;4.70;;
8001;SDS011;4046;48.774;8.732;2023-02-15T01:31:13;4.87;;;4.57;;
8001;SDS011;4046;48.774;8.732;2023-02-15T01:33:41;4.97;;;4.67;;
8001;SDS011;4046;48.774;8.732;2023-02-15T01:36:08;4.40;;;4.10;;
8001;SDS011;4046;48.774;8.732;2023-02-15T01:38:34;4.60;;;4.30;;
8001;SDS011;4046;48.774;8.732;2023-02-15T01:41:01;4.27;;;3.97;;
8001;SDS011;4046;48.774;8.732;2023-02-15T01:43:53;4.47;;;4.17;;
8001;SDS011;4046;48.774;8.732;2023-02-15T01:46:35;4.80;;;4.50;;
8001;SDS011;4046;48.774;8.732;2023-02-15T01:49:10;4.80;;;4.50;;
8001;SDS011;4046;48.774;8.732;2023-02-15T01:51:41;5.33;;;4.93;;
8001;SDS011;4046;48.774;8.732;2023-02-15T01:54:11;4.40;;;4.10;;
8001;SDS011;4046;48.774;8.732;2023-02-15T01:56:44;4.73;;;4.43;;
8001;SDS011;4046;48.774;8.732;2023-02-15T01:59:13;4.77;;;4.47;;
8001;SDS011;4046;48.774;8.732;2023-02-15T02:01:45;4.80;;;4.50;;
8001;SDS011;4046;48.774;8.732;2023-02-15T02:04:16;4.80;;;4.50;;
8001;SDS011;4046;48.774;8.732;2023-02-15T02:06:57;4.90;;;4.60;;
8001;SDS011;4046;48.774;8.732;2023-02-15T02:09:25;4.40;;;4.10;;
8001;SDS011;4046;48.774;8.732;2023-02-15T02:11:51;4.60;;;4.30;;
8001;SDS011;4046;48.774;8.732;2023-02-15T02:14:20;4.43;;;4.13;;
8001;SDS011;4046;48.774;8.732;2023-02-15T02:16:52;4.80;;;4.50;;
8001;SDS011;4046;48.774;8.732;2023-02-15T02:27:48;4.27;;;3.97;;
8001;SDS011;4046;48.774;8.732;2023-02-15T02:36:25;4.67;;;4.37;;
8001;SDS011;4046;48.774;8.732;2023-02-15T02:44:23;4.07;;;3.87;;
8001;SDS011;4046;48.774;8.732;2023-02-15T02:47:05;4.50;;;4.20;;
8001;SDS011;4046;48.774;8.732;2023-02-15T02:49:57;4.70;;;4.40;;
8001;SDS011;4046;48.774;8.732;2023-02-15T02:52:45;4.57;;;4.27;;
8001;SDS011;4046;48.774;8.732;2023-02-15T02:55:18;4.90;;;4.60;;
8001;SDS011;4046;48.774;8.732;2023-02-15T03:00:56;5.17;;;4.77;;
8001;SDS011;4046;48.774;8.732;2023-02-15T03:03:27;4.97;;;4.60;;
8001;SDS011;4046;48.774;8.732;2023-02-15T03:06:03;4.90;;;4.60;;
8001;SDS011;4046;48.774;8.732;2023-02-15T03:08:36;4.70;;;4.40;;
8001;SDS011;4046;48.774;8.732;2023-02-15T03:11:06;5.10;;;4.80;;
8001;SDS011;4046;48.774;8.732;2023-02-15T03:13:33;4.90;;;4.60;;
8001;SDS011;4046;48.774;8.732;2023-02-15T03:16:00;5.23;;;4.90;;
8001;SDS011;4046;48.774;8.732;2023-02-15T03:18:49;4.83;;;4.50;;
8001;SDS011;4046;48.774;8.732;2023-02-15T03:22:10;4.50;;;4.20;;
8001;SDS011;4046;48.774;8.732;2023-02-15T03:24:16;4.63;;;4.33;;
8001;SDS011;4046;48.774;8.732;2023-02-15T03:26:48;4.23;;;4.00;;
8001;SDS011;4046;48.774;8.732;2023-02-15T03:29:17;3.80;;;3.60;;
8001;SDS011;4046;48.774;8.732;2023-02-15T03:31:46;4.67;;;4.37;;
8001;SDS011;4046;48.774;8.732;2023-02-15T03:34:16;4.70;;;4.40;;
8001;SDS011;4046;48.774;8.732;2023-02-15T03:36:50;4.47;;;4.17;;
8001;SDS011;4046;48.774;8.732;2023-02-15T03:39:23;4.37;;;4.07;;
8001;SDS011;4046;48.774;8.732;2023-02-15T03:41:57;4.63;;;4.33;;
8001;SDS011;4046;48.774;8.732;2023-02-15T03:44:46;3.87;;;3.67;;
8001;SDS011;4046;48.774;8.732;2023-02-15T03:47:13;5.00;;;4.60;;
8001;SDS011;4046;48.774;8.732;2023-02-15T03:49:51;4.60;;;4.30;;
8001;SDS011;4046;48.774;8.732;2023-02-15T03:52:26;4.23;;;3.93;;
8001;SDS011;4046;48.774;8.732;2023-02-15T03:54:55;4.43;;;4.13;;
8001;SDS011;4046;48.774;8.732;2023-02-15T03:57:22;4.47;;;4.17;;
8001;SDS011;4046;48.774;8.732;2023-02-15T04:05:34;4.23;;;3.90;;
8001;SDS011;4046;48.774;8.732;2023-02-15T04:08:01;4.40;;;4.10;;
8001;SDS011;4046;48.774;8.732;2023-02-15T04:10:27;4.97;;;4.57;;
8001;SDS011;4046;48.774;8.732;2023-02-15T04:13:32;4.60;;;4.30;;
8001;SDS011;4046;48.774;8.732;2023-02-15T04:15:58;4.30;;;4.00;;
8001;SDS011;4046;48.774;8.732;2023-02-15T04:18:31;5.27;;;4.87;;
8001;SDS011;4046;48.774;8.732;2023-02-15T04:21:18;4.60;;;4.30;;
8001;SDS011;4046;48.774;8.732;2023-02-15T04:24:05;4.53;;;4.23;;
8001;SDS011;4046;48.774;8.732;2023-02-15T04:26:50;4.67;;;4.37;;
8001;SDS011;4046;48.774;8.732;2023-02-15T04:29:20;4.70;;;4.40;;
8001;SDS011;4046;48.774;8.732;2023-02-15T04:31:47;4.67;;;4.37;;
8001;SDS011;4046;48.774;8.732;2023-02-15T04:34:13;4.80;;;4.50;;
8001;SDS011;4046;48.774;8.732;2023-02-15T04:36:40;4.57;;;4.27;;
8001;SDS011;4046;48.774;8.732;2023-02-15T04:39:07;4.30;;;4.00;;
8001;SDS011;4046;48.774;8.732;2023-02-15T04:41:34;4.20;;;3.90;;
8001;SDS011;4046;48.774;8.732;2023-02-15T04:44:01;4.40;;;4.10;;
8001;SDS011;4046;48.774;8.732;2023-02-15T04:46:27;4.83;;;4.53;;
8001;SDS011;4046;48.774;8.732;2023-02-15T04:48:54;4.20;;;3.90;;
8001;SDS011;4046;48.774;8.732;2023-02-15T04:51:21;3.80;;;3.60;;
8001;SDS011;4046;48.774;8.732;2023-02-15T04:53:47;3.90;;;3.70;;
8001;SDS011;4046;48.774;8.732;2023-02-15T04:56:14;4.80;;;4.50;;
8001;SDS011;4046;48.774;8.732;2023-02-15T04:58:40;5.00;;;4.70;;
8001;SDS011;4046;48.774;8.732;2023-02-15T05:01:07;4.20;;;4.00;;
8001;SDS011;4046;48.774;8.732;2023-02-15T05:03:34;4.20;;;4.00;;
8001;SDS011;4046;48.774;8.732;2023-02-15T05:06:00;4.10;;;3.90;;
8001;SDS011;4046;48.774;8.732;2023-02-15T05:08:27;4.23;;;4.03;;
8001;SDS011;4046;48.774;8.732;2023-02-15T05:10:53;4.00;;;3.80;;
8001;SDS011;4046;48.774;8.732;2023-02-15T05:13:19;4.10;;;3.80;;
8001;SDS011;4046;48.774;8.732;2023-02-15T05:15:46;4.40;;;4.10;;
8001;SDS011;4046;48.774;8.732;2023-02-15T05:18:17;3.67;;;3.47;;
8001;SDS011;4046;48.774;8.732;2023-02-15T05:20:45;4.37;;;4.10;;
8001;SDS011;4046;48.774;8.732;2023-02-15T05:23:11;3.90;;;3.70;;
8001;SDS011;4046;48.774;8.732;2023-02-15T05:25:38;4.40;;;4.10;;
8001;SDS011;4046;48.774;8.732;2023-02-15T05:28:25;4.47;;;4.27;;
8001;SDS011;4046;48.774;8.732;2023-02-15T05:31:02;4.67;;;4.37;;
8001;SDS011;4046;48.774;8.732;2023-02-15T05:33:55;5.50;;;5.10;;
8001;SDS011;4046;48.774;8.732;2023-02-15T05:36:21;3.87;;;3.67;;
8001;SDS011;4046;48.774;8.732;2023-02-15T05:38:48;4.13;;;3.87;;
8001;SDS011;4046;48.774;8.732;2023-02-15T05:41:14;4.20;;;3.90;;
8001;SDS011;4046;48.774;8.732;2023-02-15T05:43:40;4.17;;;3.87;;
8001;SDS011;4046;48.774;8.732;2023-02-15T05:46:07;4.13;;;3.83;;
8001;SDS011;4046;48.774;8.732;2023-02-15T05:48:34;4.53;;;4.23;;
8001;SDS011;4046;48.774;8.732;2023-02-15T05:51:01;4.33;;;4.03;;
8001;SDS011;4046;48.774;8.732;2023-02-15T05:53:30;4.37;;;4.10;;
8001;SDS011;4046;48.774;8.732;2023-02-15T05:55:58;4.30;;;4.00;;
8001;SDS011;4046;48.774;8.732;2023-02-15T05:58:30;4.23;;;4.03;;
8001;SDS011;4046;48.774;8.732;2023-02-15T06:00:58;3.70;;;3.50;;
8001;SDS011;4046;48.774;8.732;2023-02-15T06:03:24;3.80;;;3.50;;
8001;SDS011;4046;48.774;8.732;2023-02-15T06:05:51;4.53;;;4.23;;
8001;SDS011;4046;48.774;8.732;2023-02-15T06:08:18;3.80;;;3.60;;
8001;SDS011;4046;48.774;8.732;2023-02-15T06:10:45;4.27;;;3.97;;
8001;SDS011;4046;48.774;8.732;2023-02-15T06:13:12;4.10;;;3.80;;
8001;SDS011;4046;48.774;8.732;2023-02-15T06:15:38;4.00;;;3.80;;
8001;SDS011;4046;48.774;8.732;2023-02-15T06:18:04;3.90;;;3.70;;
8001;SDS011;4046;48.774;8.732;2023-02-15T06:20:30;3.93;;;3.73;;
8001;SDS011;4046;48.774;8.732;2023-02-15T06:22:56;3.93;;;3.63;;
8001;SDS011;4046;48.774;8.732;2023-02-15T06:25:23;3.87;;;3.67;;
8001;SDS011;4046;48.774;8.732;2023-02-15T06:27:50;3.73;;;3.53;;
8001;SDS011;4046;48.774;8.732;2023-02-15T06:30:16;3.90;;;3.67;;
8001;SDS011;4046;48.774;8.732;2023-02-15T06:32:42;3.70;;;3.50;;
8001;SDS011;4046;48.774;8.732;2023-02-15T06:35:09;4.57;;;4.27;;
8001;SDS011;4046;48.774;8.732;2023-02-15T06:37:35;4.13;;;3.90;;
8001;SDS011;4046;48.774;8.732;2023-02-15T06:40:01;4.30;;;4.00;;
8001;SDS011;4046;48.774;8.732;2023-02-15T06:42:29;4.50;;;4.10;;
8001;SDS011;4046;48.774;8.732;2023-02-15T06:44:56;3.93;;;3.73;;
8001;SDS011;4046;48.774;8.732;2023-02-15T06:47:22;4.10;;;3.80;;
8001;SDS011;4046;48.774;8.732;2023-02-15T06:49:49;3.83;;;3.63;;
8001;SDS011;4046;48.774;8.732;2023-02-15T06:52:15;3.83;;;3.63;;
8001;SDS011;4046;48.774;8.732;2023-02-15T06:54:41;3.60;;;3.40;;
8001;SDS011;4046;48.774;8.732;2023-02-15T06:57:07;4.17;;;3.97;;
8001;SDS011;4046;48.774;8.732;2023-02-15T06:59:35;4.57;;;4.27;;
8001;SDS011;4046;48.774;8.732;2023-02-15T07:02:01;3.83;;;3.63;;
8001;SDS011;4046;48.774;8.732;2023-02-15T07:04:27;3.63;;;3.43;;
8001;SDS011;4046;48.774;8.732;2023-02-15T07:06:55;4.33;;;4.03;;
8001;SDS011;4046;48.774;8.732;2023-02-15T07:09:22;4.17;;;3.87;;
8001;SDS011;4046;48.774;8.732;2023-02-15T07:11:48;4.40;;;4.10;;
8001;SDS011;4046;48.774;8.732;2023-02-15T07:14:33;4.13;;;3.87;;
8001;SDS011;4046;48.774;8.732;2023-02-15T07:16:59;4.53;;;4.23;;
8001;SDS011;4046;48.774;8.732;2023-02-15T07:19:26;3.93;;;3.73;;
8001;SDS011;4046;48.774;8.732;2023-02-15T07:21:52;4.60;;;4.30;;
8001;SDS011;4046;48.774;8.732;2023-02-15T07:24:18;4.43;;;4.10;;
8001;SDS011;4046;48.774;8.732;2023-02-15T07:26:45;4.47;;;4.17;;
8001;SDS011;4046;48.774;8.732;2023-02-15T07:29:11;4.70;;;4.40;;
8001;SDS011;4046;48.774;8.732;2023-02-15T07:31:37;5.03;;;4.63;;
8001;SDS011;4046;48.774;8.732;2023-02-15T07:34:05;4.27;;;3.97;;
8001;SDS011;4046;48.774;8.732;2023-02-15T07:36:32;5.13;;;4.83;;
8001;SDS011;4046;48.774;8.732;2023-02-15T07:38:59;4.50;;;4.20;;
8001;SDS011;4046;48.774;8.732;2023-02-15T07:41:25;4.50;;;4.20;;
8001;SDS011;4046;48.774;8.732;2023-02-15T07:43:51;4.63;;;4.23;;
8001;SDS011;4046;48.774;8.732;2023-02-15T07:46:18;4.63;;;4.33;;
8001;SDS011;4046;48.774;8.732;2023-02-15T07:48:45;4.77;;;4.37;;
8001;SDS011;4046;48.774;8.732;2023-02-15T07:51:12;4.47;;;4.17;;
8001;SDS011;4046;48.774;8.732;2023-02-15T07:53:39;4.40;;;4.10;;
8001;SDS011;4046;48.774;8.732;2023-02-15T07:56:07;4.20;;;3.97;;
8001;SDS011;4046;48.774;8.732;2023-02-15T07:58:36;4.60;;;4.23;;
8001;SDS011;4046;48.774;8.732;2023-02-15T08:03:49;3.80;;;3.60;;
8001;SDS011;4046;48.774;8.732;2023-02-15T08:06:16;4.53;;;4.23;;
8001;SDS011;4046;48.774;8.732;2023-02-15T08:08:42;4.33;;;4.03;;
8001;SDS011;4046;48.774;8.732;2023-02-15T08:13:55;5.20;;;4.80;;
8001;SDS011;4046;48.774;8.732;2023-02-15T08:16:29;4.47;;;4.07;;
8001;SDS011;4046;48.774;8.732;2023-02-15T08:19:06;4.00;;;3.77;;
8001;SDS011;4046;48.774;8.732;2023-02-15T08:21:34;4.33;;;4.10;;
8001;SDS011;4046;48.774;8.732;2023-02-15T08:24:03;4.70;;;4.40;;
8001;SDS011;4046;48.774;8.732;2023-02-15T08:26:30;4.47;;;4.17;;
8001;SDS011;4046;48.774;8.732;2023-02-15T08:28:57;3.97;;;3.70;;
8001;SDS011;4046;48.774;8.732;2023-02-15T08:31:24;3.90;;;3.70;;
8001;SDS011;4046;48.774;8.732;2023-02-15T08:33:51;4.30;;;4.00;;
8001;SDS011;4046;48.774;8.732;2023-02-15T08:36:20;3.90;;;3.70;;
8001;SDS011;4046;48.774;8.732;2023-02-15T08:38:48;4.03;;;3.83;;
8001;SDS011;4046;48.774;8.732;2023-02-15T08:41:25;4.77;;;4.47;;
8001;SDS011;4046;48.774;8.732;2023-02-15T08:43:53;4.10;;;3.90;;
8001;SDS011;4046;48.774;8.732;2023-02-15T08:46:21;3.90;;;3.60;;
8001;SDS011;4046;48.774;8.732;2023-02-15T08:48:49;3.87;;;3.67;;
8001;SDS011;4046;48.774;8.732;2023-02-15T08:51:17;4.23;;;3.93;;
8001;SDS011;4046;48.774;8.732;2023-02-15T08:53:46;4.57;;;4.20;;
8001;SDS011;4046;48.774;8.732;2023-02-15T08:56:18;3.73;;;3.53;;
8001;SDS011;4046;48.774;8.732;2023-02-15T08:58:46;4.80;;;4.40;;
8001;SDS011;4046;48.774;8.732;2023-02-15T09:01:15;4.37;;;4.10;;
8001;SDS011;4046;48.774;8.732;2023-02-15T09:03:46;4.10;;;3.80;;
8001;SDS011;4046;48.774;8.732;2023-02-15T09:06:14;3.80;;;3.60;;
8001;SDS011;4046;48.774;8.732;2023-02-15T09:08:41;3.30;;;3.10;;
8001;SDS011;4046;48.774;8.732;2023-02-15T09:11:15;4.00;;;3.80;;
8001;SDS011;4046;48.774;8.732;2023-02-15T09:16:19;3.87;;;3.67;;
8001;SDS011;4046;48.774;8.732;2023-02-15T09:18:47;3.97;;;3.77;;
8001;SDS011;4046;48.774;8.732;2023-02-15T09:21:14;3.70;;;3.50;;
8001;SDS011;4046;48.774;8.732;2023-02-15T09:23:42;3.80;;;3.60;;
8001;SDS011;4046;48.774;8.732;2023-02-15T09:26:12;3.60;;;3.40;;
8001;SDS011;4046;48.774;8.732;2023-02-15T09:28:40;3.93;;;3.53;;
8001;SDS011;4046;48.774;8.732;2023-02-15T09:31:07;4.00;;;3.70;;
8001;SDS011;4046;48.774;8.732;2023-02-15T09:33:39;3.80;;;3.60;;
8001;SDS011;4046;48.774;8.732;2023-02-15T09:36:12;3.53;;;3.33;;
8001;SDS011;4046;48.774;8.732;2023-02-15T09:49:38;3.40;;;3.20;;
8001;SDS011;4046;48.774;8.732;2023-02-15T09:55:17;3.70;;;3.50;;
8001;SDS011;4046;48.774;8.732;2023-02-15T10:03:44;3.77;;;3.57;;
8001;SDS011;4046;48.774;8.732;2023-02-15T10:05:59;3.53;;;3.33;;
8001;SDS011;4046;48.774;8.732;2023-02-15T10:11:36;2.93;;;2.73;;
8001;SDS011;4046;48.774;8.732;2023-02-15T10:25:22;3.33;;;3.13;;
8001;SDS011;4046;48.774;8.732;2023-02-15T10:27:51;3.30;;;3.10;;
8001;SDS011;4046;48.774;8.732;2023-02-15T10:32:58;3.07;;;2.97;;
8001;SDS011;4046;48.774;8.732;2023-02-15T10:41:05;2.97;;;2.87;;
8001;SDS011;4046;48.774;8.732;2023-02-15T10:49:20;3.33;;;3.13;;
8001;SDS011;4046;48.774;8.732;2023-02-15T10:55:16;3.23;;;3.03;;
8001;SDS011;4046;48.774;8.732;2023-02-15T10:57:59;3.17;;;2.97;;
8001;SDS011;4046;48.774;8.732;2023-02-15T11:06:03;3.10;;;2.90;;
8001;SDS011;4046;48.774;8.732;2023-02-15T11:08:37;2.90;;;2.70;;
8001;SDS011;4046;48.774;8.732;2023-02-15T11:11:12;3.10;;;2.90;;
8001;SDS011;4046;48.774;8.732;2023-02-15T11:13:49;3.03;;;2.83;;
8001;SDS011;4046;48.774;8.732;2023-02-15T11:16:25;2.80;;;2.70;;
8001;SDS011;4046;48.774;8.732;2023-02-15T11:21:53;2.90;;;2.70;;
8001;SDS011;4046;48.774;8.732;2023-02-15T11:24:24;2.93;;;2.83;;
8001;SDS011;4046;48.774;8.732;2023-02-15T11:29:27;2.67;;;2.57;;
8001;SDS011;4046;48.774;8.732;2023-02-15T11:45:49;3.10;;;2.90;;
8001;SDS011;4046;48.774;8.732;2023-02-15T11:48:15;2.83;;;2.63;;
8001;SDS011;4046;48.774;8.732;2023-02-15T11:50:43;3.10;;;2.90;;
8001;SDS011;4046;48.774;8.732;2023-02-15T11:53:14;3.00;;;2.80;;
8001;SDS011;4046;48.774;8.732;2023-02-15T11:55:46;2.73;;;2.63;;
8001;SDS011;4046;48.774;8.732;2023-02-15T12:01:08;2.83;;;2.63;;
8001;SDS011;4046;48.774;8.732;2023-02-15T12:03:42;3.10;;;2.90;;
8001;SDS011;4046;48.774;8.732;2023-02-15T12:06:29;2.50;;;2.40;;
8001;SDS011;4046;48.774;8.732;2023-02-15T12:09:06;2.83;;;2.63;;
8001;SDS011;4046;48.774;8.732;2023-02-15T12:11:55;2.93;;;2.73;;
8001;SDS011;4046;48.774;8.732;2023-02-15T12:14:52;2.80;;;2.60;;
8001;SDS011;4046;48.774;8.732;2023-02-15T12:17:20;2.93;;;2.73;;
8001;SDS011;4046;48.774;8.732;2023-02-15T12:19:50;2.80;;;2.60;;
8001;SDS011;4046;48.774;8.732;2023-02-15T12:25:01;2.97;;;2.77;;
8001;SDS011;4046;48.774;8.732;2023-02-15T12:27:31;2.90;;;2.70;;
8001;SDS011;4046;48.774;8.732;2023-02-15T12:30:06;3.23;;;3.03;;
8001;SDS011;4046;48.774;8.732;2023-02-15T12:32:48;2.80;;;2.60;;
8001;SDS011;4046;48.774;8.732;2023-02-15T12:38:38;2.87;;;2.67;;
8001;SDS011;4046;48.774;8.732;2023-02-15T12:40:39;3.20;;;3.00;;
8001;SDS011;4046;48.774;8.732;2023-02-15T12:43:12;2.77;;;2.60;;
8001;SDS011;4046;48.774;8.732;2023-02-15T12:45:52;3.00;;;2.80;;
8001;SDS011;4046;48.774;8.732;2023-02-15T12:48:19;2.83;;;2.63;;
8001;SDS011;4046;48.774;8.732;2023-02-15T12:50:46;3.13;;;2.93;;
8001;SDS011;4046;48.774;8.732;2023-02-15T12:53:16;3.30;;;3.10;;
8001;SDS011;4046;48.774;8.732;2023-02-15T12:56:04;3.00;;;2.70;;
8001;SDS011;4046;48.774;8.732;2023-02-15T12:58:36;3.40;;;3.20;;
8001;SDS011;4046;48.774;8.732;2023-02-15T13:01:21;3.23;;;3.03;;
8001;SDS011;4046;48.774;8.732;2023-02-15T13:03:55;3.13;;;2.93;;
8001;SDS011;4046;48.774;8.732;2023-02-15T13:06:22;3.17;;;2.93;;
8001;SDS011;4046;48.774;8.732;2023-02-15T13:08:56;3.17;;;2.97;;
8001;SDS011;4046;48.774;8.732;2023-02-15T13:11:30;2.73;;;2.53;;
8001;SDS011;4046;48.774;8.732;2023-02-15T13:14:01;3.27;;;3.07;;
8001;SDS011;4046;48.774;8.732;2023-02-15T13:16:43;3.23;;;3.03;;
8001;SDS011;4046;48.774;8.732;2023-02-15T13:19:18;3.20;;;2.87;;
8001;SDS011;4046;48.774;8.732;2023-02-15T13:21:54;6.20;;;3.40;;
8001;SDS011;4046;48.774;8.732;2023-02-15T13:24:25;6.00;;;2.90;;
8001;SDS011;4046;48.774;8.732;2023-02-15T13:26:57;4.90;;;3.33;;
8001;SDS011;4046;48.774;8.732;2023-02-15T13:31:56;4.10;;;3.00;;
8001;SDS011;4046;48.774;8.732;2023-02-15T13:34:34;3.50;;;3.17;;
8001;SDS011;4046;48.774;8.732;2023-02-15T13:39:55;3.80;;;3.03;;
8001;SDS011;4046;48.774;8.732;2023-02-15T13:42:41;9.53;;;4.07;;
8001;SDS011;4046;48.774;8.732;2023-02-15T13:48:51;3.27;;;3.00;;
8001;SDS011;4046;48.774;8.732;2023-02-15T13:50:55;4.40;;;2.90;;
8001;SDS011;4046;48.774;8.732;2023-02-15T13:59:11;2.90;;;2.70;;
8001;SDS011;4046;48.774;8.732;2023-02-15T14:10:30;6.03;;;3.50;;
8001;SDS011;4046;48.774;8.732;2023-02-15T14:24:18;3.80;;;3.40;;
8001;SDS011;4046;48.774;8.732;2023-02-15T14:27:09;3.50;;;3.20;;
8001;SDS011;4046;48.774;8.732;2023-02-15T14:29:47;3.47;;;3.17;;
8001;SDS011;4046;48.774;8.732;2023-02-15T14:32:18;3.93;;;3.30;;
8001;SDS011;4046;48.774;8.732;2023-02-15T14:35:08;3.77;;;3.47;;
8001;SDS011;4046;48.774;8.732;2023-02-15T14:43:29;3.40;;;3.10;;
8001;SDS011;4046;48.774;8.732;2023-02-15T14:49:19;3.50;;;3.20;;
8001;SDS011;4046;48.774;8.732;2023-02-15T14:56:41;8.50;;;5.90;;
8001;SDS011;4046;48.774;8.732;2023-02-15T15:01:42;10.77;;;4.80;;
8001;SDS011;4046;48.774;8.732;2023-02-15T15:04:30;8.83;;;5.10;;
8001;SDS011;4046;48.774;8.732;2023-02-15T15:09:33;7.37;;;4.80;;
8001;SDS011;4046;48.774;8.732;2023-02-15T15:12:13;5.53;;;4.67;;
8001;SDS011;4046;48.774;8.732;2023-02-15T15:14:41;6.73;;;4.20;;
8001;SDS011;4046;48.774;8.732;2023-02-15T15:17:12;4.50;;;4.10;;
8001;SDS011;4046;48.774;8.732;2023-02-15T15:20:00;5.23;;;4.23;;
8001;SDS011;4046;48.774;8.732;2023-02-15T15:22:28;5.60;;;4.60;;
8001;SDS011;4046;48.774;8.732;2023-02-15T15:24:57;4.60;;;4.07;;
8001;SDS011;4046;48.774;8.732;2023-02-15T15:33:17;4.97;;;4.47;;
8001;SDS011;4046;48.774;8.732;2023-02-15T15:38:55;7.50;;;4.40;;
8001;SDS011;4046;48.774;8.732;2023-02-15T15:50:22;5.50;;;4.40;;
8001;SDS011;4046;48.774;8.732;2023-02-15T15:52:50;5.50;;;4.67;;
8001;SDS011;4046;48.774;8.732;2023-02-15T15:55:19;10.30;;;4.33;;
8001;SDS011;4046;48.774;8.732;2023-02-15T15:58:22;6.40;;;4.60;;
8001;SDS011;4046;48.774;8.732;2023-02-15T16:00:55;5.17;;;4.40;;
8001;SDS011;4046;48.774;8.732;2023-02-15T16:03:27;9.13;;;4.73;;
8001;SDS011;4046;48.774;8.732;2023-02-15T16:05:54;4.43;;;3.80;;
8001;SDS011;4046;48.774;8.732;2023-02-15T16:08:28;5.57;;;4.57;;
8001;SDS011;4046;48.774;8.732;2023-02-15T16:10:56;5.10;;;3.90;;
8001;SDS011;4046;48.774;8.732;2023-02-15T16:13:23;9.47;;;4.30;;
8001;SDS011;4046;48.774;8.732;2023-02-15T16:15:51;6.20;;;4.50;;
8001;SDS011;4046;48.774;8.732;2023-02-15T16:18:23;5.60;;;4.47;;
8001;SDS011;4046;48.774;8.732;2023-02-15T16:20:55;5.20;;;4.47;;
8001;SDS011;4046;48.774;8.732;2023-02-15T16:29:12;4.70;;;4.30;;
8001;SDS011;4046;48.774;8.732;2023-02-15T16:31:40;4.70;;;4.30;;
8001;SDS011;4046;48.774;8.732;2023-02-15T16:34:09;6.00;;;4.40;;
8001;SDS011;4046;48.774;8.732;2023-02-15T16:36:42;5.30;;;4.80;;
8001;SDS011;4046;48.774;8.732;2023-02-15T16:39:18;4.67;;;4.23;;
8001;SDS011;4046;48.774;8.732;2023-02-15T16:41:46;3.80;;;3.50;;
8001;SDS011;4046;48.774;8.732;2023-02-15T16:44:18;5.53;;;4.90;;
8001;SDS011;4046;48.774;8.732;2023-02-15T16:46:46;6.77;;;4.70;;
8001;SDS011;4046;48.774;8.732;2023-02-15T16:49:21;4.57;;;4.17;;
8001;SDS011;4046;48.774;8.732;2023-02-15T16:51:56;4.30;;;4.00;;
8001;SDS011;4046;48.774;8.732;2023-02-15T16:54:26;4.40;;;4.00;;
8001;SDS011;4046;48.774;8.732;2023-02-15T16:56:54;4.30;;;3.90;;
8001;SDS011;4046;48.774;8.732;2023-02-15T17:01:59;4.10;;;3.60;;
8001;SDS011;4046;48.774;8.732;2023-02-15T17:04:29;5.30;;;4.33;;
8001;SDS011;4046;48.774;8.732;2023-02-15T17:07:13;6.77;;;4.37;;
8001;SDS011;4046;48.774;8.732;2023-02-15T17:09:52;4.33;;;4.00;;
8001;SDS011;4046;48.774;8.732;2023-02-15T17:15:23;4.60;;;4.20;;
8001;SDS011;4046;48.774;8.732;2023-02-15T17:17:58;4.80;;;4.40;;
8001;SDS011;4046;48.774;8.732;2023-02-15T17:20:46;5.47;;;4.93;;
8001;SDS011;4046;48.774;8.732;2023-02-15T17:25:50;5.00;;;4.60;;
8001;SDS011;4046;48.774;8.732;2023-02-15T17:28:19;5.00;;;4.60;;
8001;SDS011;4046;48.774;8.732;2023-02-15T17:30:47;5.50;;;5.10;;
8001;SDS011;4046;48.774;8.732;2023-02-15T17:33:58;4.70;;;4.30;;
8001;SDS011;4046;48.774;8.732;2023-02-15T17:36:16;6.07;;;5.50;;
8001;SDS011;4046;48.774;8.732;2023-02-15T17:39:34;5.93;;;5.43;;
8001;SDS011;4046;48.774;8.732;2023-02-15T17:41:47;6.57;;;5.97;;
8001;SDS011;4046;48.774;8.732;2023-02-15T17:44:14;8.50;;;6.00;;
8001;SDS011;4046;48.774;8.732;2023-02-15T17:46:41;6.77;;;5.80;;
8001;SDS011;4046;48.774;8.732;2023-02-15T17:49:11;6.23;;;5.73;;
8001;SDS011;4046;48.774;8.732;2023-02-15T17:51:49;6.20;;;5.70;;
8001;SDS011;4046;48.774;8.732;2023-02-15T17:54:16;5.80;;;5.30;;
8001;SDS011;4046;48.774;8.732;2023-02-15T17:57:00;5.77;;;5.27;;
8001;SDS011;4046;48.774;8.732;2023-02-15T17:59:30;6.60;;;6.00;;
8001;SDS011;4046;48.774;8.732;2023-02-15T18:01:56;6.20;;;5.70;;
8001;SDS011;4046;48.774;8.732;2023-02-15T18:04:41;5.57;;;5.07;;
8001;SDS011;4046;48.774;8.732;2023-02-15T18:07:26;6.13;;;5.47;;
8001;SDS011;4046;48.774;8.732;2023-02-15T18:10:12;5.27;;;4.80;;
8001;SDS011;4046;48.774;8.732;2023-02-15T18:12:58;6.63;;;5.03;;
8001;SDS011;4046;48.774;8.732;2023-02-15T18:15:24;5.83;;;5.43;;
8001;SDS011;4046;48.774;8.732;2023-02-15T18:17:51;5.27;;;4.87;;
8001;SDS011;4046;48.774;8.732;2023-02-15T18:20:24;6.13;;;5.63;;
8001;SDS011;4046;48.774;8.732;2023-02-15T18:23:01;5.87;;;5.43;;
8001;SDS011;4046;48.774;8.732;2023-02-15T18:25:27;6.40;;;5.80;;
8001;SDS011;4046;48.774;8.732;2023-02-15T18:27:54;5.73;;;5.33;;
8001;SDS011;4046;48.774;8.732;2023-02-15T18:30:21;6.17;;;5.73;;
8001;SDS011;4046;48.774;8.732;2023-02-15T18:32:48;6.00;;;5.40;;
8001;SDS011;4046;48.774;8.732;2023-02-15T18:35:18;5.60;;;5.20;;
8001;SDS011;4046;48.774;8.732;2023-02-15T18:37:46;6.20;;;5.73;;
8001;SDS011;4046;48.774;8.732;2023-02-15T18:40:14;6.07;;;5.57;;
8001;SDS011;4046;48.774;8.732;2023-02-15T18:42:42;5.60;;;5.20;;
8001;SDS011;4046;48.774;8.732;2023-02-15T18:47:53;5.73;;;5.30;;
8001;SDS011;4046;48.774;8.732;2023-02-15T18:50:20;6.43;;;5.93;;
8001;SDS011;4046;48.774;8.732;2023-02-15T18:52:47;6.67;;;6.17;;
8001;SDS011;4046;48.774;8.732;2023-02-15T18:55:18;5.93;;;5.53;;
8001;SDS011;4046;48.774;8.732;2023-02-15T18:57:47;5.33;;;4.90;;
8001;SDS011;4046;48.774;8.732;2023-02-15T19:02:43;5.63;;;5.23;;
8001;SDS011;4046;48.774;8.732;2023-02-15T19:05:09;5.43;;;5.03;;
8001;SDS011;4046;48.774;8.732;2023-02-15T19:07:35;6.43;;;5.93;;
8001;SDS011;4046;48.774;8.732;2023-02-15T19:10:03;6.33;;;5.80;;